Terminal Aerodrome Forecast
Issued by NWS Spokane, WA

Current Version | Previous Version | Text Only | Print | Product List | Glossary On
Versions: 1 2 3 4 5 6 7 8 9 10 11 12 13 14 15 16 17 18 19 20 21 22 23 24 25 26 27 28 29 30 31 32 33 34 35 36
000
FTUS46 KOTX 081729
TAFLWS
TAF
KLWS 081729Z 0818/0918 10006KT P6SM BKN200
     FM082000 10012KT P6SM BKN100 OVC200
     FM082200 12011KT P6SM BKN050 OVC100
     FM090200 13007KT 4SM -SN OVC022
     FM090700 08006KT P6SM VCSH BKN040 OVC080=

USA.gov is the U.S. government's official web portal to all federal, state and local government web resources and services.